createdAt,value
2019-04-07T00:01:02.335Z,90.20
2019-04-07T00:03:32.321Z,90.20
2019-04-07T00:06:01.425Z,90.20
2019-04-07T00:08:31.316Z,90.30
2019-04-07T00:11:00.258Z,90.40
2019-04-07T00:13:29.773Z,90.40
2019-04-07T00:15:59.288Z,90.40
2019-04-07T00:18:28.876Z,90.40
2019-04-07T00:20:58.513Z,90.40
2019-04-07T00:23:28.487Z,90.40
2019-04-07T00:25:58.171Z,90.50
2019-04-07T00:28:27.855Z,90.40
2019-04-07T00:30:57.471Z,90.40
2019-04-07T00:33:27.318Z,90.40
2019-04-07T00:35:57.053Z,90.10
2019-04-07T00:38:26.650Z,90.00
2019-04-07T00:40:56.709Z,90.00
2019-04-07T00:43:25.531Z,90.10
2019-04-07T00:45:55.063Z,90.20
2019-04-07T00:48:24.602Z,90.30
2019-04-07T00:50:54.880Z,90.40
2019-04-07T00:53:25.499Z,90.50
2019-04-07T00:55:55.098Z,90.50
2019-04-07T00:58:24.644Z,90.40
2019-04-07T01:00:54.178Z,90.40
2019-04-07T01:03:23.780Z,90.40
2019-04-07T01:05:53.425Z,90.40
2019-04-07T01:08:22.986Z,90.30
2019-04-07T01:10:53.291Z,90.30
2019-04-07T01:13:23.116Z,90.50
2019-04-07T01:15:52.840Z,90.60
2019-04-07T01:18:23.117Z,90.80
2019-04-07T01:20:53.055Z,90.90
2019-04-07T01:23:22.722Z,90.90
2019-04-07T01:25:52.346Z,91.10
2019-04-07T01:28:22.930Z,91.10
2019-04-07T01:30:53.287Z,91.00
2019-04-07T01:33:23.553Z,91.00
2019-04-07T01:35:53.218Z,90.90
2019-04-07T01:38:22.769Z,90.90
2019-04-07T01:41:03.138Z,90.90
2019-04-07T01:43:43.535Z,90.90
2019-04-07T01:46:17.657Z,90.90
2019-04-07T01:48:48.876Z,90.80
2019-04-07T01:51:22.666Z,90.80
2019-04-07T01:53:56.518Z,90.80
2019-04-07T01:56:39.541Z,90.80
2019-04-07T01:59:12.074Z,90.70
2019-04-07T02:01:46.630Z,90.70
2019-04-07T02:04:34.723Z,90.70
2019-04-07T02:07:22.271Z,90.60
2019-04-07T02:10:02.551Z,90.50
2019-04-07T02:12:40.159Z,90.40
2019-04-07T02:15:24.056Z,90.20
2019-04-07T02:17:55.937Z,90.00
2019-04-07T02:20:45.087Z,89.80
2019-04-07T02:23:16.436Z,89.50
2019-04-07T02:25:48.068Z,89.30
2019-04-07T02:28:22.984Z,89.30
2019-04-07T02:30:54.386Z,89.20
2019-04-07T02:33:37.651Z,89.00
2019-04-07T02:36:29.188Z,89.20
2019-04-07T02:39:09.789Z,89.10
2019-04-07T02:41:42.094Z,89.20
2019-04-07T02:44:30.141Z,89.00
2019-04-07T02:47:13.705Z,88.90
2019-04-07T02:50:01.683Z,88.90
2019-04-07T02:52:50.437Z,88.90
2019-04-07T02:55:28.244Z,88.80
2019-04-07T02:57:59.609Z,89.40
2019-04-07T03:00:47.085Z,88.70
2019-04-07T03:03:18.824Z,88.60
2019-04-07T03:05:50.758Z,88.60
2019-04-07T03:08:22.629Z,88.50
2019-04-07T03:10:54.184Z,88.50
2019-04-07T03:13:41.509Z,88.30
2019-04-07T03:16:22.368Z,88.10
2019-04-07T03:18:56.679Z,88.30
2019-04-07T03:21:46.819Z,88.10
2019-04-07T03:24:21.017Z,88.10
2019-04-07T03:27:08.866Z,88.10
2019-04-07T03:29:47.075Z,87.90
2019-04-07T03:32:37.414Z,87.60
2019-04-07T03:35:13.211Z,87.60
2019-04-07T03:37:51.468Z,87.20
2019-04-07T03:40:31.702Z,87.20
2019-04-07T03:43:02.145Z,87.20
2019-04-07T03:45:43.539Z,87.00
2019-04-07T03:48:15.789Z,86.80
2019-04-07T03:50:57.033Z,86.80
2019-04-07T03:53:36.939Z,87.40
2019-04-07T03:56:25.348Z,86.60
2019-04-07T03:58:56.710Z,86.50
2019-04-07T04:01:35.033Z,86.50
2019-04-07T04:04:19.087Z,86.50
2019-04-07T04:07:18.009Z,86.30
2019-04-07T04:09:38.191Z,86.20
2019-04-07T04:12:24.452Z,86.40
2019-04-07T04:15:11.977Z,86.00
2019-04-07T04:17:41.567Z,86.10
2019-04-07T04:20:11.239Z,85.90
2019-04-07T04:22:40.804Z,85.90
2019-04-07T04:25:10.749Z,85.80
2019-04-07T04:27:39.683Z,85.90
2019-04-07T04:30:10.759Z,86.00
2019-04-07T04:32:41.402Z,85.80
2019-04-07T04:35:11.468Z,85.80
2019-04-07T04:37:46.629Z,85.80
2019-04-07T04:40:13.970Z,86.00
2019-04-07T04:42:44.368Z,86.10
2019-04-07T04:45:15.847Z,86.10
2019-04-07T04:47:46.353Z,86.00
2019-04-07T04:50:16.860Z,86.30
2019-04-07T04:52:46.952Z,86.00
2019-04-07T04:55:16.621Z,85.80
2019-04-07T04:57:46.407Z,86.40
2019-04-07T05:00:16.456Z,85.60
2019-04-07T05:02:45.702Z,85.50
2019-04-07T05:05:16.946Z,85.40
2019-04-07T05:07:55.844Z,85.30
2019-04-07T05:10:17.851Z,85.10
2019-04-07T05:12:47.435Z,84.70
2019-04-07T05:15:17.527Z,84.00
2019-04-07T05:17:47.266Z,82.70
2019-04-07T05:20:17.313Z,82.60
2019-04-07T05:22:48.703Z,83.10
2019-04-07T05:25:18.452Z,83.50
2019-04-07T05:27:48.283Z,84.10
2019-04-07T05:30:18.033Z,84.80
2019-04-07T05:32:47.840Z,85.30
2019-04-07T05:35:17.616Z,85.50
2019-04-07T05:37:59.096Z,85.70
2019-04-07T05:40:19.126Z,85.70
2019-04-07T05:42:49.665Z,85.50
2019-04-07T05:45:19.484Z,85.40
2019-04-07T05:47:50.777Z,84.90
2019-04-07T05:50:20.286Z,84.40
2019-04-07T05:52:49.958Z,84.10
2019-04-07T05:55:22.504Z,84.20
2019-04-07T05:57:51.021Z,84.30
2019-04-07T06:00:21.785Z,84.50
2019-04-07T06:02:51.642Z,83.80
2019-04-07T06:05:21.287Z,83.50
2019-04-07T06:07:51.421Z,83.20
2019-04-07T06:10:23.876Z,83.30
2019-04-07T06:12:53.088Z,83.70
2019-04-07T06:15:23.273Z,83.80
2019-04-07T06:17:52.216Z,83.40
2019-04-07T06:20:22.488Z,83.20
2019-04-07T06:22:53.634Z,82.50
2019-04-07T06:25:23.371Z,82.40
2019-04-07T06:27:53.233Z,82.10
2019-04-07T06:30:31.234Z,81.80
2019-04-07T06:32:59.583Z,81.50
2019-04-07T06:35:29.134Z,82.00
2019-04-07T06:38:03.945Z,81.30
2019-04-07T06:40:30.563Z,81.20
2019-04-07T06:43:01.570Z,80.50
2019-04-07T06:45:39.925Z,80.20
2019-04-07T06:48:11.479Z,79.80
2019-04-07T06:50:50.858Z,79.10
2019-04-07T06:53:34.931Z,78.70
2019-04-07T06:56:06.291Z,78.50
2019-04-07T06:58:40.839Z,78.30
2019-04-07T07:01:10.318Z,78.80
2019-04-07T07:03:42.206Z,79.40
2019-04-07T07:06:19.187Z,79.80
2019-04-07T07:08:53.032Z,80.50
2019-04-07T07:11:31.286Z,80.50
2019-04-07T07:14:02.179Z,80.60
2019-04-07T07:16:41.035Z,80.30
2019-04-07T07:19:12.087Z,79.40
2019-04-07T07:21:46.667Z,79.00
2019-04-07T07:24:21.416Z,78.40
2019-04-07T07:26:47.924Z,78.20
2019-04-07T07:29:18.067Z,77.10
2019-04-07T07:31:48.313Z,76.90
2019-04-07T07:34:18.835Z,75.70
2019-04-07T07:36:52.944Z,73.50
2019-04-07T07:39:19.813Z,73.50
2019-04-07T07:41:51.671Z,72.40
2019-04-07T07:44:20.045Z,72.80
2019-04-07T07:46:51.489Z,73.40
2019-04-07T07:49:21.431Z,71.60
2019-04-07T07:51:52.750Z,70.60
2019-04-07T07:54:21.764Z,70.00
2019-04-07T07:56:52.423Z,68.70
2019-04-07T07:59:22.551Z,68.20
2019-04-07T08:01:52.547Z,68.10
2019-04-07T08:04:24.948Z,67.30
2019-04-07T08:06:54.699Z,67.10
2019-04-07T08:09:25.982Z,67.10
2019-04-07T08:11:55.490Z,65.70
2019-04-07T08:14:25.031Z,65.30
2019-04-07T08:16:55.389Z,64.40
2019-04-07T08:19:29.271Z,64.50
2019-04-07T08:21:56.290Z,62.80
2019-04-07T08:24:26.151Z,62.90
2019-04-07T08:27:00.091Z,63.50
2019-04-07T08:29:30.256Z,62.00
2019-04-07T08:32:02.089Z,62.10
2019-04-07T08:34:32.993Z,61.60
2019-04-07T08:37:03.721Z,61.60
2019-04-07T08:39:35.434Z,60.50
2019-04-07T08:42:09.576Z,62.00
2019-04-07T08:44:36.661Z,62.00
2019-04-07T08:47:06.645Z,61.00
2019-04-07T08:49:36.508Z,61.10
2019-04-07T08:52:09.759Z,59.50
2019-04-07T08:54:37.299Z,59.70
2019-04-07T08:57:07.117Z,60.00
2019-04-07T08:59:39.895Z,60.50
2019-04-07T09:02:07.682Z,59.50
2019-04-07T09:04:37.478Z,59.30
2019-04-07T09:07:07.094Z,58.80
2019-04-07T09:09:40.379Z,57.50
2019-04-07T09:12:08.170Z,55.90
2019-04-07T09:14:39.838Z,56.60
2019-04-07T09:17:11.703Z,55.70
2019-04-07T09:19:49.562Z,55.30
2019-04-07T09:22:30.668Z,56.10
2019-04-07T09:25:19.338Z,55.80
2019-04-07T09:27:51.107Z,53.60
2019-04-07T09:30:29.731Z,53.00
2019-04-07T09:33:07.084Z,53.70
2019-04-07T09:35:56.645Z,50.80
2019-04-07T09:38:33.403Z,50.20
2019-04-07T09:41:04.723Z,50.20
2019-04-07T09:43:52.893Z,50.80
2019-04-07T09:46:44.785Z,51.20
2019-04-07T09:49:31.988Z,51.20
2019-04-07T09:52:18.380Z,51.00
2019-04-07T09:54:54.634Z,51.60
2019-04-07T09:57:43.480Z,51.10
2019-04-07T10:00:21.561Z,52.00
2019-04-07T10:03:02.293Z,52.70
2019-04-07T10:05:40.403Z,50.40
2019-04-07T10:08:23.787Z,49.90
2019-04-07T10:11:01.016Z,50.20
2019-04-07T10:13:35.140Z,49.70
2019-04-07T10:16:08.864Z,50.00
2019-04-07T10:18:56.599Z,49.00
2019-04-07T10:21:45.818Z,48.30
2019-04-07T10:24:23.520Z,47.10
2019-04-07T10:26:55.256Z,46.90
2019-04-07T10:29:29.239Z,46.90
2019-04-07T10:32:03.497Z,46.40
2019-04-07T10:34:46.778Z,46.20
2019-04-07T10:37:24.288Z,46.10
2019-04-07T10:39:57.682Z,46.00
2019-04-07T10:42:34.687Z,45.90
2019-04-07T10:45:10.792Z,45.60
2019-04-07T10:47:42.016Z,45.10
2019-04-07T10:50:30.234Z,45.10
2019-04-07T10:53:19.562Z,44.20
2019-04-07T10:56:08.901Z,44.90
2019-04-07T10:58:40.289Z,45.10
2019-04-07T11:01:11.558Z,45.30
2019-04-07T11:03:55.640Z,44.70
2019-04-07T11:06:39.412Z,44.70
2019-04-07T11:09:16.703Z,44.00
2019-04-07T11:11:53.763Z,42.60
2019-04-07T11:14:25.074Z,43.50
2019-04-07T11:16:56.415Z,42.90
2019-04-07T11:19:33.457Z,41.40
2019-04-07T11:22:07.896Z,42.10
2019-04-07T11:24:55.793Z,41.40
2019-04-07T11:27:27.700Z,41.70
2019-04-07T11:30:01.572Z,38.60
2019-04-07T11:32:32.877Z,38.50
2019-04-07T11:35:04.921Z,38.40
2019-04-07T11:37:42.045Z,36.90
2019-04-07T11:40:13.312Z,37.40
2019-04-07T11:42:56.615Z,36.40
2019-04-07T11:45:34.449Z,36.60
2019-04-07T11:48:12.131Z,36.00
2019-04-07T11:50:46.300Z,36.30
2019-04-07T11:53:17.796Z,36.20
2019-04-07T11:56:03.418Z,36.30
2019-04-07T11:58:39.786Z,34.90
2019-04-07T12:01:29.341Z,35.30
2019-04-07T12:04:01.211Z,35.80
2019-04-07T12:06:48.153Z,36.00
2019-04-07T12:09:17.586Z,36.90
2019-04-07T12:11:54.533Z,37.60
2019-04-07T12:14:25.782Z,37.10
2019-04-07T12:17:05.810Z,36.40
2019-04-07T12:19:54.527Z,36.30
2019-04-07T12:22:28.755Z,35.60
2019-04-07T12:25:02.020Z,36.80
2019-04-07T12:27:45.214Z,35.10
2019-04-07T12:30:18.274Z,35.50
2019-04-07T12:32:59.693Z,36.10
2019-04-07T12:35:34.100Z,37.10
2019-04-07T12:38:05.557Z,35.80
2019-04-07T12:41:11.006Z,35.30
2019-04-07T12:43:33.966Z,34.40
2019-04-07T12:46:17.732Z,34.80
2019-04-07T12:51:44.109Z,35.00
2019-04-07T12:54:15.692Z,34.50
2019-04-07T12:57:05.323Z,34.80
2019-04-07T12:59:54.101Z,35.40
2019-04-07T13:02:34.765Z,36.00
2019-04-07T13:05:16.492Z,30.10
2019-04-07T13:07:54.533Z,32.70
2019-04-07T13:10:39.276Z,30.60
2019-04-07T13:13:13.477Z,31.80
2019-04-07T13:15:48.307Z,31.90
2019-04-07T13:18:26.451Z,30.90
2019-04-07T13:21:04.245Z,30.60
2019-04-07T13:23:36.978Z,30.80
2019-04-07T13:26:14.266Z,30.40
2019-04-07T13:29:01.776Z,30.90
2019-04-07T13:31:33.182Z,30.90
2019-04-07T13:34:23.387Z,32.40
2019-04-07T13:36:54.791Z,31.30
2019-04-07T13:39:26.081Z,30.80
2019-04-07T13:42:00.247Z,31.70
2019-04-07T13:44:48.377Z,32.00
2019-04-07T13:47:23.120Z,31.90
2019-04-07T13:49:58.012Z,30.80
2019-04-07T13:52:42.598Z,30.90
2019-04-07T13:55:25.565Z,30.00
2019-04-07T13:58:12.111Z,29.70
2019-04-07T14:00:59.461Z,29.50
2019-04-07T14:03:40.602Z,29.30
2019-04-07T14:06:15.004Z,28.80
2019-04-07T14:08:57.158Z,29.50
2019-04-07T14:11:38.365Z,30.00
2019-04-07T14:14:18.767Z,28.90
2019-04-07T14:17:01.634Z,27.80
2019-04-07T14:19:37.156Z,27.70
2019-04-07T14:22:25.575Z,27.30
2019-04-07T14:24:59.672Z,26.60
2019-04-07T14:27:37.315Z,25.40
2019-04-07T14:30:15.614Z,24.60
2019-04-07T14:33:02.336Z,24.50
2019-04-07T14:35:33.600Z,24.10
2019-04-07T14:38:23.972Z,25.00
2019-04-07T14:41:04.189Z,25.70
2019-04-07T14:43:41.883Z,26.80
2019-04-07T14:46:22.701Z,27.00
2019-04-07T14:49:13.837Z,27.70
2019-04-07T14:51:58.150Z,29.00
2019-04-07T14:54:35.532Z,28.70
2019-04-07T14:57:19.093Z,28.50
2019-04-07T14:59:59.027Z,29.40
2019-04-07T15:02:29.118Z,29.80
2019-04-07T15:05:04.144Z,31.20
2019-04-07T15:07:50.390Z,31.70
2019-04-07T15:10:27.544Z,32.80
2019-04-07T15:12:58.925Z,33.90
2019-04-07T15:15:28.588Z,34.00
2019-04-07T15:17:58.754Z,34.50
2019-04-07T15:20:28.409Z,34.90
2019-04-07T15:22:59.867Z,35.00
2019-04-07T15:25:29.704Z,34.10
2019-04-07T15:28:11.589Z,34.30
2019-04-07T15:30:43.564Z,34.50
2019-04-07T15:33:12.300Z,35.80
2019-04-07T15:35:45.177Z,35.40
2019-04-07T15:38:12.967Z,36.10
2019-04-07T15:40:42.781Z,36.10
2019-04-07T15:43:12.606Z,36.50
2019-04-07T15:45:44.116Z,35.90
2019-04-07T15:48:13.560Z,36.10
2019-04-07T15:50:43.191Z,36.90
2019-04-07T15:53:14.377Z,37.20
2019-04-07T15:55:50.961Z,37.60
2019-04-07T15:58:15.871Z,37.30
2019-04-07T16:00:46.181Z,38.10
2019-04-07T16:03:16.952Z,38.40
2019-04-07T16:05:46.653Z,39.10
2019-04-07T16:08:16.280Z,39.50
2019-04-07T16:10:47.784Z,40.10
2019-04-07T16:13:18.417Z,40.50
2019-04-07T16:15:53.468Z,40.90
2019-04-07T16:18:20.312Z,41.50
2019-04-07T16:20:50.609Z,41.00
2019-04-07T16:23:20.994Z,41.30
2019-04-07T16:25:52.312Z,40.40
2019-04-07T16:28:22.844Z,40.20
2019-04-07T16:30:54.255Z,40.30
2019-04-07T16:33:23.858Z,41.40
2019-04-07T16:35:55.380Z,41.50
2019-04-07T16:38:25.414Z,40.70
2019-04-07T16:40:55.917Z,41.10
2019-04-07T16:43:26.211Z,41.60
2019-04-07T16:45:55.833Z,42.20
2019-04-07T16:48:26.077Z,42.80
2019-04-07T16:50:55.855Z,44.10
2019-04-07T16:53:27.005Z,44.00
2019-04-07T16:55:57.477Z,44.50
2019-04-07T16:58:27.615Z,45.10
2019-04-07T17:00:57.901Z,45.80
2019-04-07T17:03:27.654Z,46.10
2019-04-07T17:05:59.322Z,51.00
2019-04-07T17:08:28.784Z,53.40
2019-04-07T17:11:04.400Z,55.30
2019-04-07T17:13:39.443Z,57.80
2019-04-07T17:16:03.212Z,58.90
2019-04-07T17:18:41.371Z,60.30
2019-04-07T17:21:18.364Z,62.70
2019-04-07T17:23:48.252Z,63.20
2019-04-07T17:26:18.160Z,64.10
2019-04-07T17:28:48.550Z,64.90
2019-04-07T17:31:18.789Z,66.60
2019-04-07T17:33:48.906Z,67.60
2019-04-07T17:36:21.086Z,68.90
2019-04-07T17:39:04.034Z,69.70
2019-04-07T17:41:33.864Z,71.10
2019-04-07T17:44:16.948Z,72.00
2019-04-07T17:46:50.209Z,72.50
2019-04-07T17:49:26.307Z,73.00
2019-04-07T17:51:57.563Z,73.30
2019-04-07T17:54:43.796Z,74.00
2019-04-07T17:57:15.280Z,74.70
2019-04-07T17:59:52.561Z,74.90
2019-04-07T18:02:27.922Z,74.70
2019-04-07T18:04:57.063Z,74.90
2019-04-07T18:07:44.951Z,74.90
2019-04-07T18:10:26.715Z,74.90
2019-04-07T18:13:08.076Z,74.90
2019-04-07T18:15:45.571Z,74.90
2019-04-07T18:18:33.497Z,75.20
2019-04-07T18:21:11.770Z,75.00
2019-04-07T18:23:49.494Z,76.00
2019-04-07T18:26:23.301Z,75.30
2019-04-07T18:29:11.047Z,75.60
2019-04-07T18:32:00.383Z,75.80
2019-04-07T18:34:37.765Z,76.00
2019-04-07T18:37:20.937Z,76.30
2019-04-07T18:39:57.446Z,76.60
2019-04-07T18:42:35.080Z,77.40
2019-04-07T18:45:17.767Z,76.70
2019-04-07T18:47:57.127Z,77.00
2019-04-07T18:50:28.638Z,77.10
2019-04-07T18:53:17.838Z,77.40
2019-04-07T18:55:57.970Z,77.60
2019-04-07T18:58:33.242Z,78.00
2019-04-07T19:01:08.648Z,78.10
2019-04-07T19:03:48.508Z,78.20
2019-04-07T19:06:25.718Z,78.50
2019-04-07T19:09:03.613Z,79.20
2019-04-07T19:11:48.692Z,80.60
2019-04-07T19:14:37.891Z,81.30
2019-04-07T19:17:12.777Z,81.00
2019-04-07T19:20:00.715Z,80.90
2019-04-07T19:22:51.287Z,81.60
2019-04-07T19:25:25.817Z,81.50
2019-04-07T19:28:13.631Z,81.90
2019-04-07T19:31:01.233Z,82.00
2019-04-07T19:33:33.422Z,82.10
2019-04-07T19:36:04.821Z,82.20
2019-04-07T19:38:38.698Z,82.70
2019-04-07T19:41:11.018Z,83.00
2019-04-07T19:43:48.228Z,82.90
2019-04-07T19:46:20.224Z,83.10
2019-04-07T19:49:07.922Z,82.80
2019-04-07T19:51:42.255Z,82.60
2019-04-07T19:54:29.729Z,82.40
2019-04-07T19:57:00.926Z,82.80
2019-04-07T19:59:39.259Z,82.50
2019-04-07T20:05:34.153Z,82.10
2019-04-07T20:08:22.952Z,82.00
2019-04-07T20:11:07.465Z,82.20
2019-04-07T20:13:42.441Z,82.30
2019-04-07T20:16:19.854Z,82.20
2019-04-07T20:18:51.593Z,82.20
2019-04-07T20:21:34.825Z,82.20
2019-04-07T20:24:03.670Z,82.00
2019-04-07T20:26:40.525Z,82.30
2019-04-07T20:29:20.727Z,82.20
2019-04-07T20:32:10.966Z,83.00
2019-04-07T20:34:48.380Z,83.20
2019-04-07T20:37:26.672Z,83.40
2019-04-07T20:39:59.332Z,83.70
2019-04-07T20:42:39.661Z,84.30
2019-04-07T20:45:26.805Z,84.40
2019-04-07T20:48:14.645Z,84.60
2019-04-07T20:50:54.668Z,84.40
2019-04-07T20:53:30.180Z,85.10
2019-04-07T20:56:11.538Z,85.50
2019-04-07T20:58:55.242Z,85.50
2019-04-07T21:01:36.734Z,85.60
2019-04-07T21:04:14.906Z,85.80
2019-04-07T21:06:49.610Z,86.00
2019-04-07T21:09:52.016Z,85.70
2019-04-07T21:12:33.504Z,86.00
2019-04-07T21:15:24.516Z,86.10
2019-04-07T21:17:52.419Z,86.10
2019-04-07T21:20:57.562Z,86.00
2019-04-07T21:23:28.743Z,86.00
2019-04-07T21:26:27.221Z,86.40
2019-04-07T21:29:12.916Z,86.90
2019-04-07T21:31:53.004Z,87.20
2019-04-07T21:34:26.935Z,87.20
2019-04-07T21:37:12.503Z,87.30
2019-04-07T21:39:45.111Z,88.00
2019-04-07T21:42:18.666Z,88.10
2019-04-07T21:44:55.282Z,88.20
2019-04-07T21:47:29.328Z,88.40
2019-04-07T21:50:02.865Z,88.50
2019-04-07T21:52:39.064Z,88.60
2019-04-07T21:55:16.907Z,89.30
2019-04-07T21:57:53.551Z,90.20
2019-04-07T22:00:30.463Z,89.90
2019-04-07T22:03:07.580Z,89.40
2019-04-07T22:05:39.203Z,89.10
2019-04-07T22:08:17.097Z,89.20
2019-04-07T22:10:44.817Z,89.30
2019-04-07T22:13:15.325Z,89.10
2019-04-07T22:15:49.322Z,89.10
2019-04-07T22:18:16.139Z,89.00
2019-04-07T22:20:47.908Z,89.00
2019-04-07T22:23:18.757Z,89.20
2019-04-07T22:25:50.939Z,89.40
2019-04-07T22:28:20.835Z,89.60
2019-04-07T22:30:53.376Z,90.20
2019-04-07T22:33:25.249Z,90.00
2019-04-07T22:35:54.143Z,89.80
2019-04-07T22:38:23.923Z,89.10
2019-04-07T22:40:54.277Z,88.70
2019-04-07T22:43:24.856Z,88.50
2019-04-07T22:46:07.162Z,88.80
2019-04-07T22:48:27.216Z,89.20
2019-04-07T22:50:57.163Z,89.70
2019-04-07T22:53:28.856Z,89.70
2019-04-07T22:55:58.949Z,89.80
2019-04-07T22:58:29.863Z,89.60
2019-04-07T23:01:00.614Z,89.50
2019-04-07T23:03:31.278Z,89.70
2019-04-07T23:06:01.151Z,89.50
2019-04-07T23:08:30.857Z,89.10
2019-04-07T23:11:00.414Z,88.80
2019-04-07T23:13:30.074Z,88.60
2019-04-07T23:16:08.697Z,89.00
2019-04-07T23:18:31.751Z,89.10
2019-04-07T23:21:01.345Z,89.20
2019-04-07T23:23:31.038Z,89.20
2019-04-07T23:26:00.862Z,89.20
2019-04-07T23:28:30.647Z,89.00
2019-04-07T23:31:00.380Z,89.00
2019-04-07T23:33:29.916Z,89.60
2019-04-07T23:35:59.743Z,89.40
2019-04-07T23:38:30.330Z,89.40
2019-04-07T23:41:01.120Z,89.40
2019-04-07T23:43:30.808Z,89.80
2019-04-07T23:46:00.432Z,89.60
2019-04-07T23:48:30.620Z,89.70
2019-04-07T23:51:00.293Z,89.60
2019-04-07T23:54:09.003Z,90.20
2019-04-07T23:56:39.890Z,89.90
2019-04-07T23:59:10.359Z,89.90
